aviador You're here:

PANW Decoded Metar

NEW STUYAHOK in AK, USA
Report Time2018-02-17 22:56:00
UTC Time2018-02-17 23:33:05
Flight Rules vfr VFR
Wind030° at 09 kt
W.Decomp.*RWY 32: 5.3 kt HW 7.3 kt RCW
W.Rank030° ranks 17
Current wind is above 030° avg. (7.0)
Visibility9999 m
Phenomena:N/A
Clouds:N/A
Expected CloudBase > 400 ft AGL from Temp-Dew spread
CeilingNone
Temp-6°C (ISA -20)
Dew Point-7°C (93% RH)
AAT-12.0°C
QNH1036 hPa
Density Alt-2,956 ft
Elevation302 ft
Report Wrong Elevation
Raw Report
PANW 172256Z AUTO 03009KT 10SM CLR M06/M07 A3059 RMK AO2 SLP377
T10561072 FZRANO PNO $=

Extra information for PANW:More info

Metar Taf Metar & Taf Last 4 Metars F.Rules Stats Wind Profile Meteogram Temp Stats Airport Information Weather charts Add Link Nearby VenuesMetar ALERT Operation Metar Decoded Social comments

AIRNAV info for PANW